createdAt,value
2019-02-19T00:02:06.938Z,6.00
2019-02-19T00:04:41.131Z,5.45
2019-02-19T00:07:09.396Z,6.67
2019-02-19T00:09:37.387Z,5.55
2019-02-19T00:12:13.605Z,6.15
2019-02-19T00:14:43.628Z,5.60
2019-02-19T00:17:11.797Z,6.45
2019-02-19T00:19:39.767Z,5.62
2019-02-19T00:22:09.657Z,5.40
2019-02-19T00:24:37.575Z,5.50
2019-02-19T00:27:05.632Z,5.58
2019-02-19T00:29:33.762Z,6.10
2019-02-19T00:32:01.752Z,7.83
2019-02-19T00:34:29.822Z,5.72
2019-02-19T00:36:57.807Z,5.42
2019-02-19T00:39:25.764Z,5.10
2019-02-19T00:41:53.870Z,5.15
2019-02-19T00:44:22.778Z,5.03
2019-02-19T00:46:50.720Z,5.90
2019-02-19T00:49:18.668Z,6.00
2019-02-19T00:51:46.582Z,5.83
2019-02-19T00:54:14.499Z,6.15
2019-02-19T00:56:42.443Z,5.25
2019-02-19T00:59:10.693Z,5.90
2019-02-19T01:01:38.715Z,5.00
2019-02-19T01:04:06.680Z,5.75
2019-02-19T01:06:34.655Z,5.30
2019-02-19T01:09:02.684Z,5.40
2019-02-19T01:11:30.626Z,5.67
2019-02-19T01:13:58.566Z,5.80
2019-02-19T01:16:26.519Z,5.45
2019-02-19T01:18:54.442Z,4.85
2019-02-19T01:21:22.387Z,5.15
2019-02-19T01:23:50.355Z,4.80
2019-02-19T01:26:18.561Z,5.47
2019-02-19T01:28:46.498Z,5.90
2019-02-19T01:31:14.469Z,4.80
2019-02-19T01:33:42.572Z,5.12
2019-02-19T01:36:10.507Z,4.95
2019-02-19T01:38:38.439Z,5.67
2019-02-19T01:41:07.347Z,6.30
2019-02-19T01:43:35.295Z,7.58
2019-02-19T01:46:03.236Z,9.53
2019-02-19T01:48:31.207Z,6.70
2019-02-19T01:50:59.164Z,8.25
2019-02-19T01:53:27.286Z,7.60
2019-02-19T01:55:55.253Z,7.03
2019-02-19T01:58:23.204Z,7.47
2019-02-19T02:00:52.081Z,6.40
2019-02-19T02:03:20.079Z,4.92
2019-02-19T02:05:48.156Z,4.95
2019-02-19T02:08:16.131Z,5.80
2019-02-19T02:10:44.078Z,6.40
2019-02-19T02:13:12.066Z,5.92
2019-02-19T02:15:42.622Z,4.80
2019-02-19T02:18:10.064Z,5.90
2019-02-19T02:20:38.113Z,5.03
2019-02-19T02:23:06.072Z,5.30
2019-02-19T02:25:43.201Z,5.50
2019-02-19T02:28:11.368Z,5.20
2019-02-19T02:30:39.386Z,5.53
2019-02-19T02:33:07.395Z,5.50
2019-02-19T02:35:40.396Z,4.95
2019-02-19T02:38:08.325Z,5.05
2019-02-19T02:40:36.285Z,5.25
2019-02-19T02:43:04.275Z,5.05
2019-02-19T02:45:32.386Z,5.10
2019-02-19T02:48:02.330Z,5.87
2019-02-19T02:50:30.291Z,5.67
2019-02-19T02:52:58.261Z,4.53
2019-02-19T02:55:26.218Z,4.97
2019-02-19T02:57:54.158Z,5.78
2019-02-19T03:00:22.133Z,4.72
2019-02-19T03:02:50.171Z,5.15
2019-02-19T03:05:18.168Z,5.45
2019-02-19T03:07:51.836Z,4.90
2019-02-19T03:10:20.935Z,5.28
2019-02-19T03:12:48.943Z,4.80
2019-02-19T03:15:17.223Z,5.25
2019-02-19T03:17:45.161Z,5.17
2019-02-19T03:20:13.070Z,6.70
2019-02-19T03:22:41.162Z,4.92
2019-02-19T03:25:09.219Z,5.00
2019-02-19T03:27:37.625Z,4.83
2019-02-19T03:30:05.564Z,5.62
2019-02-19T03:32:39.794Z,4.80
2019-02-19T03:35:07.843Z,4.92
2019-02-19T03:37:35.866Z,5.78
2019-02-19T03:40:04.035Z,5.12
2019-02-19T03:42:35.043Z,5.20
2019-02-19T03:45:06.339Z,5.10
2019-02-19T03:47:43.359Z,5.80
2019-02-19T03:50:11.313Z,6.00
2019-02-19T03:52:39.324Z,5.03
2019-02-19T03:55:07.358Z,5.40
2019-02-19T03:57:35.292Z,5.40
2019-02-19T04:00:03.209Z,5.37
2019-02-19T04:02:37.565Z,5.20
2019-02-19T04:05:11.669Z,5.40
2019-02-19T04:07:39.824Z,5.55
2019-02-19T04:10:07.797Z,5.20
2019-02-19T04:12:35.718Z,5.45
2019-02-19T04:15:08.711Z,6.25
2019-02-19T04:17:36.831Z,5.97
2019-02-19T04:20:06.705Z,6.47
2019-02-19T04:22:34.688Z,5.15
2019-02-19T04:25:04.076Z,5.70
2019-02-19T04:27:31.992Z,5.65
2019-02-19T04:30:01.938Z,5.25
2019-02-19T04:32:29.844Z,5.95
2019-02-19T04:34:57.784Z,5.40
2019-02-19T04:37:25.696Z,5.53
2019-02-19T04:39:53.663Z,5.83
2019-02-19T04:42:21.594Z,6.35
2019-02-19T04:44:49.575Z,5.45
2019-02-19T04:47:20.542Z,6.45
2019-02-19T04:49:48.483Z,6.55
2019-02-19T04:52:16.426Z,5.90
2019-02-19T04:54:46.053Z,5.55
2019-02-19T04:57:13.995Z,5.25
2019-02-19T04:59:41.876Z,5.85
2019-02-19T05:02:09.824Z,5.92
2019-02-19T05:04:37.882Z,4.90
2019-02-19T05:07:05.896Z,6.42
2019-02-19T05:09:33.840Z,6.00
2019-02-19T05:12:02.032Z,8.28
2019-02-19T05:14:29.959Z,7.75
2019-02-19T05:16:57.903Z,8.60
2019-02-19T05:19:25.810Z,7.45
2019-02-19T05:21:53.737Z,6.15
2019-02-19T05:24:21.812Z,7.50
2019-02-19T05:26:49.728Z,6.42
2019-02-19T05:29:17.883Z,5.75
2019-02-19T05:31:45.794Z,5.85
2019-02-19T05:34:13.770Z,6.42
2019-02-19T05:36:41.673Z,5.40
2019-02-19T05:39:09.598Z,5.62
2019-02-19T05:41:38.138Z,5.37
2019-02-19T05:44:07.276Z,5.80
2019-02-19T05:46:35.216Z,5.67
2019-02-19T05:49:03.572Z,5.75
2019-02-19T05:51:31.487Z,5.60
2019-02-19T05:53:59.900Z,6.08
2019-02-19T05:56:27.821Z,5.37
2019-02-19T05:58:55.713Z,5.70
2019-02-19T06:01:23.624Z,5.45
2019-02-19T06:03:52.670Z,6.25
2019-02-19T06:06:20.588Z,5.42
2019-02-19T06:08:48.535Z,6.50
2019-02-19T06:11:16.497Z,6.67
2019-02-19T06:13:44.583Z,5.95
2019-02-19T06:16:12.512Z,5.75
2019-02-19T06:18:40.416Z,6.37
2019-02-19T06:21:08.574Z,6.70
2019-02-19T06:23:36.495Z,5.92
2019-02-19T06:26:04.404Z,6.50
2019-02-19T06:28:32.357Z,5.95
2019-02-19T06:31:00.291Z,6.80
2019-02-19T06:33:28.203Z,6.15
2019-02-19T06:35:56.128Z,5.87
2019-02-19T06:38:24.102Z,6.25
2019-02-19T06:40:52.049Z,7.08
2019-02-19T06:43:19.974Z,6.20
2019-02-19T06:45:47.928Z,6.75
2019-02-19T06:48:15.983Z,7.70
2019-02-19T06:50:43.914Z,6.87
2019-02-19T06:53:11.873Z,8.58
2019-02-19T06:55:40.738Z,6.33
2019-02-19T06:58:08.762Z,6.17
2019-02-19T07:00:36.787Z,6.72
2019-02-19T07:03:21.850Z,5.78
2019-02-19T07:05:50.866Z,5.70
2019-02-19T07:08:28.071Z,5.25
2019-02-19T07:10:56.120Z,5.90
2019-02-19T07:13:24.030Z,6.40
2019-02-19T07:15:51.966Z,6.03
2019-02-19T07:18:21.145Z,6.10
2019-02-19T07:20:49.212Z,6.50
2019-02-19T07:23:17.118Z,5.90
2019-02-19T07:25:45.026Z,6.70
2019-02-19T07:28:12.922Z,5.90
2019-02-19T07:30:40.843Z,5.30
2019-02-19T07:33:08.950Z,6.35
2019-02-19T07:35:37.176Z,6.75
2019-02-19T07:38:05.090Z,6.65
2019-02-19T07:40:33.049Z,7.65
2019-02-19T07:43:00.966Z,7.90
2019-02-19T07:45:28.879Z,6.40
2019-02-19T07:47:56.781Z,6.17
2019-02-19T07:50:24.870Z,5.00
2019-02-19T07:52:52.895Z,6.30
2019-02-19T07:55:20.824Z,5.00
2019-02-19T07:57:48.750Z,5.17
2019-02-19T08:00:16.721Z,5.00
2019-02-19T08:02:44.645Z,5.23
2019-02-19T08:05:12.591Z,6.67
2019-02-19T08:07:40.538Z,6.37
2019-02-19T08:10:08.488Z,5.33
2019-02-19T08:12:36.856Z,5.73
2019-02-19T08:15:04.778Z,5.57
2019-02-19T08:17:33.612Z,6.93
2019-02-19T08:20:01.684Z,5.60
2019-02-19T08:22:29.601Z,6.43
2019-02-19T08:24:57.521Z,5.80
2019-02-19T08:27:25.465Z,6.03
2019-02-19T08:29:53.381Z,5.53
2019-02-19T08:32:21.471Z,5.07
2019-02-19T08:34:49.398Z,5.90
2019-02-19T08:37:17.327Z,6.30
2019-02-19T08:39:47.130Z,6.37
2019-02-19T08:42:14.790Z,7.00
2019-02-19T08:44:42.973Z,6.27
2019-02-19T08:47:12.832Z,6.20
2019-02-19T08:49:40.419Z,6.00
2019-02-19T08:52:08.577Z,6.40
2019-02-19T08:54:36.924Z,5.40
2019-02-19T08:57:05.520Z,5.80
2019-02-19T08:59:33.434Z,6.07
2019-02-19T09:02:01.733Z,25.53
2019-02-19T09:04:29.672Z,6.47
2019-02-19T09:06:57.600Z,6.00
2019-02-19T09:09:25.616Z,5.60
2019-02-19T09:11:53.480Z,5.60
2019-02-19T09:14:22.498Z,4.97
2019-02-19T09:16:50.558Z,5.37
2019-02-19T09:19:18.456Z,5.20
2019-02-19T09:21:46.570Z,4.80
2019-02-19T09:24:14.563Z,5.70
2019-02-19T09:26:42.455Z,5.90
2019-02-19T09:29:10.393Z,5.13
2019-02-19T09:31:38.305Z,5.80
2019-02-19T09:34:06.220Z,5.10
2019-02-19T09:36:34.149Z,6.00
2019-02-19T09:39:02.098Z,5.53
2019-02-19T09:41:30.935Z,4.70
2019-02-19T09:43:58.819Z,5.13
2019-02-19T09:46:26.808Z,5.20
2019-02-19T09:48:55.183Z,4.97
2019-02-19T09:51:23.099Z,5.30
2019-02-19T09:53:51.072Z,5.57
2019-02-19T09:56:21.722Z,5.70
2019-02-19T09:58:49.642Z,5.90
2019-02-19T10:01:17.588Z,5.33
2019-02-19T10:03:45.511Z,7.90
2019-02-19T10:06:16.183Z,5.90
2019-02-19T10:08:44.278Z,5.83
2019-02-19T10:11:15.312Z,6.67
2019-02-19T10:13:43.239Z,5.67
2019-02-19T10:16:11.226Z,6.30
2019-02-19T10:18:40.321Z,5.80
2019-02-19T10:21:08.247Z,6.20
2019-02-19T10:23:36.357Z,6.17
2019-02-19T10:26:04.248Z,6.20
2019-02-19T10:28:32.137Z,6.40
2019-02-19T10:31:00.036Z,7.37
2019-02-19T10:33:27.994Z,6.13
2019-02-19T10:35:55.895Z,6.13
2019-02-19T10:38:23.799Z,6.50
2019-02-19T10:40:52.578Z,6.47
2019-02-19T10:43:20.718Z,6.83
2019-02-19T10:45:48.718Z,7.13
2019-02-19T10:48:19.377Z,7.50
2019-02-19T10:50:47.377Z,6.47
2019-02-19T10:53:15.346Z,6.23
2019-02-19T10:55:43.435Z,5.43
2019-02-19T10:58:11.643Z,5.63
2019-02-19T11:00:39.699Z,6.27
2019-02-19T11:03:07.601Z,5.77
2019-02-19T11:05:36.915Z,6.43
2019-02-19T11:08:05.000Z,6.80
2019-02-19T11:10:32.970Z,6.27
2019-02-19T11:13:02.542Z,6.77
2019-02-19T11:15:30.695Z,7.10
2019-02-19T11:17:58.794Z,6.83
2019-02-19T11:20:26.818Z,5.50
2019-02-19T11:22:54.852Z,6.87
2019-02-19T11:25:22.742Z,7.03
2019-02-19T11:27:50.806Z,6.70
2019-02-19T11:30:20.215Z,6.20
2019-02-19T11:32:48.201Z,7.97
2019-02-19T11:35:16.500Z,6.20
2019-02-19T11:37:44.844Z,7.97
2019-02-19T11:40:12.712Z,6.33
2019-02-19T11:42:40.579Z,7.80
2019-02-19T11:45:08.522Z,7.47
2019-02-19T11:47:36.460Z,7.43
2019-02-19T11:50:04.352Z,9.67
2019-02-19T11:52:32.230Z,8.77
2019-02-19T11:55:03.901Z,9.30
2019-02-19T11:57:31.721Z,9.63
2019-02-19T11:59:59.638Z,8.57
2019-02-19T12:02:32.959Z,7.60
2019-02-19T12:04:57.697Z,6.83
2019-02-19T12:07:25.637Z,6.67
2019-02-19T12:09:53.543Z,6.00
2019-02-19T12:12:21.391Z,6.10
2019-02-19T12:14:49.326Z,5.70
2019-02-19T12:17:18.268Z,5.70
2019-02-19T12:19:46.144Z,6.30
2019-02-19T12:22:14.119Z,5.60
2019-02-19T12:24:42.020Z,6.10
2019-02-19T12:27:09.915Z,6.10
2019-02-19T12:29:37.832Z,6.67
2019-02-19T12:32:06.721Z,6.40
2019-02-19T12:34:34.577Z,6.00
2019-02-19T12:37:02.613Z,5.73
2019-02-19T12:39:30.506Z,6.00
2019-02-19T12:41:58.414Z,5.60
2019-02-19T12:44:26.318Z,6.20
2019-02-19T12:46:54.305Z,5.97
2019-02-19T12:49:22.539Z,6.43
2019-02-19T12:51:50.442Z,7.40
2019-02-19T12:54:18.307Z,6.70
2019-02-19T12:56:47.232Z,5.97
2019-02-19T12:59:15.218Z,5.80
2019-02-19T13:01:43.145Z,5.73
2019-02-19T13:04:11.405Z,5.80
2019-02-19T13:06:39.387Z,5.83
2019-02-19T13:09:08.718Z,6.60
2019-02-19T13:11:36.807Z,5.70
2019-02-19T13:14:05.531Z,5.77
2019-02-19T13:16:33.424Z,4.90
2019-02-19T13:19:03.804Z,5.87
2019-02-19T13:21:31.407Z,5.27
2019-02-19T13:23:59.416Z,5.40
2019-02-19T13:26:28.302Z,5.43
2019-02-19T13:28:56.553Z,5.43
2019-02-19T13:31:24.447Z,5.50
2019-02-19T13:33:52.545Z,5.27
2019-02-19T13:36:20.477Z,4.13
2019-02-19T13:38:48.622Z,4.40
2019-02-19T13:41:16.810Z,5.20
2019-02-19T13:43:44.682Z,4.93
2019-02-19T13:46:12.657Z,4.13
2019-02-19T13:48:40.919Z,4.40
2019-02-19T13:51:09.131Z,4.37
2019-02-19T13:53:41.612Z,4.40
2019-02-19T13:56:09.538Z,4.70
2019-02-19T13:58:37.521Z,3.67
2019-02-19T14:01:05.527Z,4.43
2019-02-19T14:03:33.543Z,4.07
2019-02-19T14:06:01.626Z,4.73
2019-02-19T14:08:29.590Z,4.57
2019-02-19T14:10:57.472Z,4.27
2019-02-19T14:13:25.549Z,3.97
2019-02-19T14:16:13.453Z,4.27
2019-02-19T14:18:55.046Z,5.07
2019-02-19T14:21:42.967Z,4.53
2019-02-19T14:24:29.701Z,5.10
2019-02-19T14:27:15.253Z,4.90
2019-02-19T14:30:02.103Z,4.47
2019-02-19T14:32:48.828Z,4.97
2019-02-19T14:35:35.603Z,4.57
2019-02-19T14:38:22.461Z,5.30
2019-02-19T14:41:09.306Z,5.00
2019-02-19T14:43:54.873Z,5.00
2019-02-19T14:46:50.292Z,4.97
2019-02-19T14:49:37.535Z,5.23
2019-02-19T14:52:24.480Z,4.47
2019-02-19T14:55:14.412Z,4.80
2019-02-19T14:58:07.324Z,4.53
2019-02-19T15:00:52.766Z,4.87
2019-02-19T15:10:29.927Z,4.20
2019-02-19T15:16:36.463Z,4.80
2019-02-19T15:19:28.936Z,4.43
2019-02-19T15:22:41.921Z,3.77
2019-02-19T15:28:44.830Z,4.00
2019-02-19T15:31:56.227Z,4.30
2019-02-19T15:38:07.906Z,4.10
2019-02-19T15:40:53.551Z,4.43
2019-02-19T15:43:33.875Z,3.70
2019-02-19T15:46:39.020Z,3.97
2019-02-19T15:49:34.405Z,4.23
2019-02-19T15:52:26.932Z,4.70
2019-02-19T15:55:12.360Z,4.20
2019-02-19T15:57:53.275Z,4.73
2019-02-19T16:00:40.015Z,4.60
2019-02-19T16:03:13.128Z,4.67
2019-02-19T16:05:51.417Z,4.73
2019-02-19T16:08:38.162Z,5.07
2019-02-19T16:11:16.069Z,5.60
2019-02-19T16:14:02.139Z,5.20
2019-02-19T16:16:48.891Z,6.17
2019-02-19T16:19:34.268Z,5.60
2019-02-19T16:22:12.143Z,5.30
2019-02-19T16:25:08.411Z,5.73
2019-02-19T16:28:04.015Z,5.40
2019-02-19T16:30:53.842Z,6.20
2019-02-19T16:33:49.390Z,6.00
2019-02-19T16:36:36.174Z,6.30
2019-02-19T16:39:31.687Z,5.50
2019-02-19T16:42:17.354Z,5.80
2019-02-19T16:45:20.439Z,6.70
2019-02-19T16:48:05.961Z,6.63
2019-02-19T16:51:01.580Z,5.60
2019-02-19T16:53:57.495Z,6.17
2019-02-19T16:56:48.676Z,6.50
2019-02-19T16:59:34.192Z,6.43
2019-02-19T17:02:23.440Z,6.30
2019-02-19T17:05:14.162Z,6.00
2019-02-19T17:07:47.251Z,6.60
2019-02-19T17:10:27.793Z,5.80
2019-02-19T17:13:27.226Z,6.55
2019-02-19T17:16:18.010Z,6.23
2019-02-19T17:19:04.836Z,6.65
2019-02-19T17:21:51.628Z,5.80
2019-02-19T17:24:41.433Z,5.45
2019-02-19T17:27:37.769Z,6.67
2019-02-19T17:30:26.625Z,6.72
2019-02-19T17:33:32.821Z,6.33
2019-02-19T17:36:16.607Z,7.08
2019-02-19T17:39:02.313Z,6.92
2019-02-19T17:41:47.384Z,6.37
2019-02-19T17:44:24.189Z,6.62
2019-02-19T17:47:10.946Z,7.40
2019-02-19T17:49:45.626Z,6.80
2019-02-19T17:52:31.288Z,7.05
2019-02-19T17:55:19.817Z,6.90
2019-02-19T17:58:09.411Z,6.62
2019-02-19T18:00:56.741Z,6.33
2019-02-19T18:03:49.587Z,7.65
2019-02-19T18:06:36.370Z,7.25
2019-02-19T18:09:13.013Z,7.60
2019-02-19T18:12:04.188Z,7.20
2019-02-19T18:14:50.382Z,7.25
2019-02-19T18:17:44.851Z,7.20
2019-02-19T18:20:12.946Z,6.90
2019-02-19T18:22:40.882Z,6.67
2019-02-19T18:25:08.960Z,6.78
2019-02-19T18:27:36.962Z,6.87
2019-02-19T18:30:05.025Z,8.40
2019-02-19T18:32:33.302Z,6.95
2019-02-19T18:35:01.271Z,7.72
2019-02-19T18:37:29.317Z,7.83
2019-02-19T18:39:57.521Z,7.53
2019-02-19T18:42:25.592Z,6.50
2019-02-19T18:44:53.659Z,6.45
2019-02-19T18:47:21.613Z,8.55
2019-02-19T18:49:49.600Z,8.10
2019-02-19T18:52:17.677Z,7.72
2019-02-19T18:54:46.209Z,7.08
2019-02-19T18:57:14.226Z,7.20
2019-02-19T18:59:42.402Z,6.80
2019-02-19T19:02:12.503Z,8.68
2019-02-19T19:04:40.255Z,7.35
2019-02-19T19:07:08.763Z,7.25
2019-02-19T19:09:38.446Z,7.83
2019-02-19T19:12:07.467Z,7.17
2019-02-19T19:14:35.848Z,8.50
2019-02-19T19:17:03.821Z,7.80
2019-02-19T19:19:31.786Z,8.65
2019-02-19T19:21:59.754Z,8.03
2019-02-19T19:24:28.896Z,8.18
2019-02-19T19:26:57.354Z,9.55
2019-02-19T19:29:25.245Z,7.85
2019-02-19T19:31:53.114Z,8.25
2019-02-19T19:34:21.240Z,8.30
2019-02-19T19:36:49.209Z,7.85
2019-02-19T19:39:17.384Z,8.60
2019-02-19T19:41:45.354Z,7.55
2019-02-19T19:44:13.589Z,7.70
2019-02-19T19:46:41.776Z,6.92
2019-02-19T19:49:09.745Z,8.73
2019-02-19T19:51:37.745Z,8.45
2019-02-19T19:54:05.818Z,8.15
2019-02-19T19:56:33.857Z,8.40
2019-02-19T19:59:02.060Z,9.18
2019-02-19T20:01:30.133Z,8.90
2019-02-19T20:03:58.076Z,8.88
2019-02-19T20:06:26.181Z,8.13
2019-02-19T20:08:54.242Z,7.67
2019-02-19T20:11:22.420Z,8.75
2019-02-19T20:13:50.496Z,8.10
2019-02-19T20:16:18.777Z,8.53
2019-02-19T20:18:46.739Z,8.40
2019-02-19T20:21:14.685Z,7.53
2019-02-19T20:23:43.088Z,8.05
2019-02-19T20:26:11.362Z,7.42
2019-02-19T20:28:40.071Z,8.83
2019-02-19T20:31:08.025Z,8.63
2019-02-19T20:33:36.293Z,8.90
2019-02-19T20:36:04.267Z,8.68
2019-02-19T20:38:32.547Z,8.70
2019-02-19T20:41:00.485Z,9.00
2019-02-19T20:43:30.422Z,10.10
2019-02-19T20:45:58.394Z,9.08
2019-02-19T20:48:26.759Z,9.70
2019-02-19T20:50:54.792Z,9.58
2019-02-19T20:53:23.355Z,10.50
2019-02-19T20:55:53.139Z,8.18
2019-02-19T20:58:22.034Z,8.95
2019-02-19T21:00:50.090Z,8.68
2019-02-19T21:03:18.071Z,8.55
2019-02-19T21:05:46.019Z,8.83
2019-02-19T21:08:14.214Z,8.73
2019-02-19T21:10:42.166Z,9.75
2019-02-19T21:13:10.258Z,8.25
2019-02-19T21:15:38.736Z,8.63
2019-02-19T21:18:06.707Z,9.05
2019-02-19T21:20:34.633Z,8.65
2019-02-19T21:23:02.953Z,9.03
2019-02-19T21:25:31.425Z,9.38
2019-02-19T21:27:59.812Z,9.98
2019-02-19T21:30:27.789Z,8.50
2019-02-19T21:32:55.957Z,9.03
2019-02-19T21:35:24.005Z,8.98
2019-02-19T21:37:52.221Z,9.10
2019-02-19T21:40:20.376Z,10.03
2019-02-19T21:42:48.741Z,9.35
2019-02-19T21:45:16.838Z,9.73
2019-02-19T21:47:45.685Z,9.48
2019-02-19T21:50:15.821Z,9.85
2019-02-19T21:52:43.396Z,9.10
2019-02-19T21:55:11.365Z,10.05
2019-02-19T21:57:39.520Z,8.50
2019-02-19T22:00:09.107Z,9.05
2019-02-19T22:02:38.993Z,9.13
2019-02-19T22:05:07.339Z,8.20
2019-02-19T22:07:35.500Z,8.65
2019-02-19T22:10:03.897Z,8.43
2019-02-19T22:12:32.051Z,9.50
2019-02-19T22:15:00.044Z,9.28
2019-02-19T22:17:28.005Z,9.45
2019-02-19T22:20:02.892Z,9.13
2019-02-19T22:22:27.839Z,8.75
2019-02-19T22:24:56.002Z,9.55
2019-02-19T22:27:24.091Z,9.08
2019-02-19T22:29:52.126Z,8.98
2019-02-19T22:32:20.625Z,9.08
2019-02-19T22:34:48.810Z,8.93
2019-02-19T22:37:16.782Z,8.90
2019-02-19T22:39:47.360Z,7.85
2019-02-19T22:42:15.284Z,8.25
2019-02-19T22:45:02.112Z,8.30
2019-02-19T22:47:30.200Z,9.45
2019-02-19T22:49:58.271Z,9.18
2019-02-19T22:52:26.240Z,9.03
2019-02-19T22:55:03.236Z,9.10
2019-02-19T22:57:31.196Z,8.63
2019-02-19T22:59:59.166Z,9.05
2019-02-19T23:02:29.035Z,8.70
2019-02-19T23:04:56.986Z,8.50
2019-02-19T23:07:25.001Z,8.90
2019-02-19T23:09:53.094Z,8.48
2019-02-19T23:12:22.271Z,8.68
2019-02-19T23:14:51.209Z,8.80
2019-02-19T23:17:19.911Z,9.03
2019-02-19T23:19:49.864Z,9.15
2019-02-19T23:22:21.582Z,9.40
2019-02-19T23:24:47.311Z,8.25
2019-02-19T23:27:16.919Z,9.63
2019-02-19T23:29:45.096Z,9.65
2019-02-19T23:32:13.170Z,9.65
2019-02-19T23:34:41.241Z,8.68
2019-02-19T23:37:23.742Z,9.13
2019-02-19T23:39:51.926Z,9.93
2019-02-19T23:42:19.927Z,9.30
2019-02-19T23:44:47.948Z,8.70
2019-02-19T23:47:16.244Z,9.70
2019-02-19T23:49:44.623Z,8.35
2019-02-19T23:52:12.666Z,9.00
2019-02-19T23:54:40.870Z,8.23
2019-02-19T23:57:08.947Z,8.50
2019-02-19T23:59:37.001Z,7.90
